Terminal Aerodrome Forecast
Issued by NWS Atlanta, GA

Home | Current Version | Previous Version | Text Only | Print | Product List | Glossary On
Versions: 1 2 3 4 5 6 7 8 9 10 11 12 13 14 15 16 17
660
FTUS42 KFFC 052129 AAA
TAFCSG
TAF AMD
KCSG 052129Z 0521/0618 07004KT 5SM -RA BR OVC008
      TEMPO 0522/0602 2SM TSRA BR BKN004 OVC009CB
     FM060200 06007KT 2SM -SHRA BR OVC005
     FM060600 09007KT 2SM SHRA BR OVC005 PROB30 0606/0612 -TSRA BR
      BKN004CB
     FM061600 23010G20KT 5SM BR OVC020=

USA.gov is the U.S. government's official web portal to all federal, state and local government web resources and services.